sensor_id;sensor_type;location;lat;lon;timestamp;temperature;humidity
59307;DHT22;47983;53.016;-2.260;2024-01-27T00:00:59;5.70;99.90
59307;DHT22;47983;53.016;-2.260;2024-01-27T00:03:26;5.70;99.90
59307;DHT22;47983;53.016;-2.260;2024-01-27T00:05:54;5.70;99.90
59307;DHT22;47983;53.016;-2.260;2024-01-27T00:08:22;5.70;99.90
59307;DHT22;47983;53.016;-2.260;2024-01-27T00:10:49;5.70;99.90
59307;DHT22;47983;53.016;-2.260;2024-01-27T00:13:17;5.70;99.90
59307;DHT22;47983;53.016;-2.260;2024-01-27T00:15:45;5.70;99.90
59307;DHT22;47983;53.016;-2.260;2024-01-27T00:18:12;5.70;99.90
59307;DHT22;47983;53.016;-2.260;2024-01-27T00:20:40;5.60;99.90
59307;DHT22;47983;53.016;-2.260;2024-01-27T00:23:08;5.70;99.90
59307;DHT22;47983;53.016;-2.260;2024-01-27T00:25:35;5.60;99.90
59307;DHT22;47983;53.016;-2.260;2024-01-27T00:28:03;5.70;99.90
59307;DHT22;47983;53.016;-2.260;2024-01-27T00:30:31;5.60;99.90
59307;DHT22;47983;53.016;-2.260;2024-01-27T00:32:59;5.60;99.90
59307;DHT22;47983;53.016;-2.260;2024-01-27T00:35:26;5.60;99.90
59307;DHT22;47983;53.016;-2.260;2024-01-27T00:37:54;5.50;99.90
59307;DHT22;47983;53.016;-2.260;2024-01-27T00:40:22;5.50;99.90
59307;DHT22;47983;53.016;-2.260;2024-01-27T00:42:50;5.50;99.90
59307;DHT22;47983;53.016;-2.260;2024-01-27T00:45:18;5.50;99.90
59307;DHT22;47983;53.016;-2.260;2024-01-27T00:47:45;5.50;99.90
59307;DHT22;47983;53.016;-2.260;2024-01-27T00:50:13;5.50;99.90
59307;DHT22;47983;53.016;-2.260;2024-01-27T00:52:41;5.40;99.90
59307;DHT22;47983;53.016;-2.260;2024-01-27T00:55:09;5.40;99.90
59307;DHT22;47983;53.016;-2.260;2024-01-27T00:57:37;5.40;99.90
59307;DHT22;47983;53.016;-2.260;2024-01-27T01:00:08;5.40;99.90
59307;DHT22;47983;53.016;-2.260;2024-01-27T01:02:37;5.40;99.90
59307;DHT22;47983;53.016;-2.260;2024-01-27T01:05:05;5.40;99.90
59307;DHT22;47983;53.016;-2.260;2024-01-27T01:07:33;5.40;99.90
59307;DHT22;47983;53.016;-2.260;2024-01-27T01:10:01;5.40;99.90
59307;DHT22;47983;53.016;-2.260;2024-01-27T01:12:30;5.40;99.90
59307;DHT22;47983;53.016;-2.260;2024-01-27T01:14:58;5.30;99.90
59307;DHT22;47983;53.016;-2.260;2024-01-27T01:17:25;5.30;99.90
59307;DHT22;47983;53.016;-2.260;2024-01-27T01:19:54;5.30;99.90
59307;DHT22;47983;53.016;-2.260;2024-01-27T01:22:22;5.30;99.90
59307;DHT22;47983;53.016;-2.260;2024-01-27T01:24:49;5.30;99.90
59307;DHT22;47983;53.016;-2.260;2024-01-27T01:27:17;5.30;99.90
59307;DHT22;47983;53.016;-2.260;2024-01-27T01:29:46;5.40;99.90
59307;DHT22;47983;53.016;-2.260;2024-01-27T01:32:14;5.30;99.90
59307;DHT22;47983;53.016;-2.260;2024-01-27T01:34:42;5.40;99.90
59307;DHT22;47983;53.016;-2.260;2024-01-27T01:37:10;5.40;99.90
59307;DHT22;47983;53.016;-2.260;2024-01-27T01:39:38;5.40;99.90
59307;DHT22;47983;53.016;-2.260;2024-01-27T01:42:05;5.40;99.90
59307;DHT22;47983;53.016;-2.260;2024-01-27T01:44:33;5.40;99.90
59307;DHT22;47983;53.016;-2.260;2024-01-27T01:47:01;5.40;99.90
59307;DHT22;47983;53.016;-2.260;2024-01-27T01:49:28;5.40;99.90
59307;DHT22;47983;53.016;-2.260;2024-01-27T01:51:57;5.40;99.90
59307;DHT22;47983;53.016;-2.260;2024-01-27T01:54:25;5.40;99.90
59307;DHT22;47983;53.016;-2.260;2024-01-27T01:56:55;5.40;99.90
59307;DHT22;47983;53.016;-2.260;2024-01-27T01:59:25;5.40;99.90
59307;DHT22;47983;53.016;-2.260;2024-01-27T02:01:53;5.40;99.90
59307;DHT22;47983;53.016;-2.260;2024-01-27T02:04:20;5.40;99.90
59307;DHT22;47983;53.016;-2.260;2024-01-27T02:06:48;5.40;99.90
59307;DHT22;47983;53.016;-2.260;2024-01-27T02:09:16;5.40;99.90
59307;DHT22;47983;53.016;-2.260;2024-01-27T02:11:44;5.40;99.90
59307;DHT22;47983;53.016;-2.260;2024-01-27T02:14:12;5.50;99.90
59307;DHT22;47983;53.016;-2.260;2024-01-27T02:16:40;5.50;99.90
59307;DHT22;47983;53.016;-2.260;2024-01-27T02:19:07;5.50;99.90
59307;DHT22;47983;53.016;-2.260;2024-01-27T02:21:35;5.50;99.90
59307;DHT22;47983;53.016;-2.260;2024-01-27T02:24:07;5.50;99.90
59307;DHT22;47983;53.016;-2.260;2024-01-27T02:26:34;5.50;99.90
59307;DHT22;47983;53.016;-2.260;2024-01-27T02:29:02;5.50;99.90
59307;DHT22;47983;53.016;-2.260;2024-01-27T02:31:30;5.50;99.90
59307;DHT22;47983;53.016;-2.260;2024-01-27T02:33:58;5.50;99.90
59307;DHT22;47983;53.016;-2.260;2024-01-27T02:36:25;5.50;99.90
59307;DHT22;47983;53.016;-2.260;2024-01-27T02:38:53;5.50;99.90
59307;DHT22;47983;53.016;-2.260;2024-01-27T02:41:21;5.50;99.90
59307;DHT22;47983;53.016;-2.260;2024-01-27T02:43:48;5.60;99.90
59307;DHT22;47983;53.016;-2.260;2024-01-27T02:46:16;5.50;99.90
59307;DHT22;47983;53.016;-2.260;2024-01-27T02:48:45;5.60;99.90
59307;DHT22;47983;53.016;-2.260;2024-01-27T02:51:13;5.50;99.90
59307;DHT22;47983;53.016;-2.260;2024-01-27T02:53:46;5.50;99.90
59307;DHT22;47983;53.016;-2.260;2024-01-27T02:56:16;5.60;99.90
59307;DHT22;47983;53.016;-2.260;2024-01-27T02:58:44;5.60;99.90
59307;DHT22;47983;53.016;-2.260;2024-01-27T03:01:11;5.60;99.90
59307;DHT22;47983;53.016;-2.260;2024-01-27T03:03:39;5.60;99.90
59307;DHT22;47983;53.016;-2.260;2024-01-27T03:06:07;5.60;99.90
59307;DHT22;47983;53.016;-2.260;2024-01-27T03:08:34;5.60;99.90
59307;DHT22;47983;53.016;-2.260;2024-01-27T03:11:02;5.60;99.90
59307;DHT22;47983;53.016;-2.260;2024-01-27T03:13:30;5.60;99.90
59307;DHT22;47983;53.016;-2.260;2024-01-27T03:15:58;5.60;99.90
59307;DHT22;47983;53.016;-2.260;2024-01-27T03:18:26;5.60;99.90
59307;DHT22;47983;53.016;-2.260;2024-01-27T03:20:54;5.60;99.90
59307;DHT22;47983;53.016;-2.260;2024-01-27T03:23:21;5.60;99.90
59307;DHT22;47983;53.016;-2.260;2024-01-27T03:25:49;5.60;99.90
59307;DHT22;47983;53.016;-2.260;2024-01-27T03:28:16;5.60;99.90
59307;DHT22;47983;53.016;-2.260;2024-01-27T03:30:44;5.60;99.90
59307;DHT22;47983;53.016;-2.260;2024-01-27T03:33:12;5.60;99.90
59307;DHT22;47983;53.016;-2.260;2024-01-27T03:35:40;5.60;99.90
59307;DHT22;47983;53.016;-2.260;2024-01-27T03:38:08;5.60;99.90
59307;DHT22;47983;53.016;-2.260;2024-01-27T03:40:36;5.50;99.90
59307;DHT22;47983;53.016;-2.260;2024-01-27T03:43:04;5.50;99.90
59307;DHT22;47983;53.016;-2.260;2024-01-27T03:45:32;5.50;99.90
59307;DHT22;47983;53.016;-2.260;2024-01-27T03:47:59;5.40;99.90
59307;DHT22;47983;53.016;-2.260;2024-01-27T03:50:27;5.40;99.90
59307;DHT22;47983;53.016;-2.260;2024-01-27T03:52:55;5.30;99.90
59307;DHT22;47983;53.016;-2.260;2024-01-27T03:55:22;5.20;99.90
59307;DHT22;47983;53.016;-2.260;2024-01-27T03:57:50;5.20;99.90
59307;DHT22;47983;53.016;-2.260;2024-01-27T04:00:18;5.20;99.90
59307;DHT22;47983;53.016;-2.260;2024-01-27T04:02:45;5.10;99.90
59307;DHT22;47983;53.016;-2.260;2024-01-27T04:05:13;5.10;99.90
59307;DHT22;47983;53.016;-2.260;2024-01-27T04:07:41;5.10;99.90
59307;DHT22;47983;53.016;-2.260;2024-01-27T04:10:09;5.10;99.90
59307;DHT22;47983;53.016;-2.260;2024-01-27T04:12:36;5.10;99.90
59307;DHT22;47983;53.016;-2.260;2024-01-27T04:15:04;5.10;99.90
59307;DHT22;47983;53.016;-2.260;2024-01-27T04:17:32;5.10;99.90
59307;DHT22;47983;53.016;-2.260;2024-01-27T04:20:00;5.10;99.90
59307;DHT22;47983;53.016;-2.260;2024-01-27T04:22:28;5.10;99.90
59307;DHT22;47983;53.016;-2.260;2024-01-27T04:24:55;5.10;99.90
59307;DHT22;47983;53.016;-2.260;2024-01-27T04:27:23;5.10;99.90
59307;DHT22;47983;53.016;-2.260;2024-01-27T04:29:51;5.10;99.90
59307;DHT22;47983;53.016;-2.260;2024-01-27T04:32:18;5.10;99.90
59307;DHT22;47983;53.016;-2.260;2024-01-27T04:34:46;5.10;99.90
59307;DHT22;47983;53.016;-2.260;2024-01-27T04:37:14;5.00;99.90
59307;DHT22;47983;53.016;-2.260;2024-01-27T04:39:41;5.10;99.90
59307;DHT22;47983;53.016;-2.260;2024-01-27T04:42:09;5.00;99.90
59307;DHT22;47983;53.016;-2.260;2024-01-27T04:44:40;5.00;99.90
59307;DHT22;47983;53.016;-2.260;2024-01-27T04:47:08;5.00;99.90
59307;DHT22;47983;53.016;-2.260;2024-01-27T04:49:36;5.00;99.90
59307;DHT22;47983;53.016;-2.260;2024-01-27T04:52:04;5.00;99.90
59307;DHT22;47983;53.016;-2.260;2024-01-27T04:54:32;5.00;99.90
59307;DHT22;47983;53.016;-2.260;2024-01-27T04:56:59;5.00;99.90
59307;DHT22;47983;53.016;-2.260;2024-01-27T04:59:27;5.10;99.90
59307;DHT22;47983;53.016;-2.260;2024-01-27T05:01:54;5.10;99.90
59307;DHT22;47983;53.016;-2.260;2024-01-27T05:04:22;5.10;99.90
59307;DHT22;47983;53.016;-2.260;2024-01-27T05:06:54;5.10;99.90
59307;DHT22;47983;53.016;-2.260;2024-01-27T05:09:21;5.10;99.90
59307;DHT22;47983;53.016;-2.260;2024-01-27T05:11:49;5.10;99.90
59307;DHT22;47983;53.016;-2.260;2024-01-27T05:14:19;5.10;99.90
59307;DHT22;47983;53.016;-2.260;2024-01-27T05:16:46;5.10;99.90
59307;DHT22;47983;53.016;-2.260;2024-01-27T05:19:14;5.10;99.90
59307;DHT22;47983;53.016;-2.260;2024-01-27T05:21:44;5.10;99.90
59307;DHT22;47983;53.016;-2.260;2024-01-27T05:24:12;5.10;99.90
59307;DHT22;47983;53.016;-2.260;2024-01-27T05:26:40;5.10;99.90
59307;DHT22;47983;53.016;-2.260;2024-01-27T05:29:08;5.10;99.90
59307;DHT22;47983;53.016;-2.260;2024-01-27T05:31:36;5.10;99.90
59307;DHT22;47983;53.016;-2.260;2024-01-27T05:34:03;5.20;99.90
59307;DHT22;47983;53.016;-2.260;2024-01-27T05:36:32;5.20;99.90
59307;DHT22;47983;53.016;-2.260;2024-01-27T05:39:00;5.20;99.90
59307;DHT22;47983;53.016;-2.260;2024-01-27T05:41:28;5.20;99.90
59307;DHT22;47983;53.016;-2.260;2024-01-27T05:43:58;5.20;99.90
59307;DHT22;47983;53.016;-2.260;2024-01-27T05:46:26;5.20;99.90
59307;DHT22;47983;53.016;-2.260;2024-01-27T05:48:54;5.30;99.90
59307;DHT22;47983;53.016;-2.260;2024-01-27T05:51:25;5.30;99.90
59307;DHT22;47983;53.016;-2.260;2024-01-27T05:53:53;5.30;99.90
59307;DHT22;47983;53.016;-2.260;2024-01-27T05:56:21;5.30;99.90
59307;DHT22;47983;53.016;-2.260;2024-01-27T05:58:49;5.30;99.90
59307;DHT22;47983;53.016;-2.260;2024-01-27T06:01:19;5.30;99.90
59307;DHT22;47983;53.016;-2.260;2024-01-27T06:03:47;5.30;99.90
59307;DHT22;47983;53.016;-2.260;2024-01-27T06:06:15;5.30;99.90
59307;DHT22;47983;53.016;-2.260;2024-01-27T06:08:43;5.30;99.90
59307;DHT22;47983;53.016;-2.260;2024-01-27T06:11:11;5.30;99.90
59307;DHT22;47983;53.016;-2.260;2024-01-27T06:13:39;5.30;99.90
59307;DHT22;47983;53.016;-2.260;2024-01-27T06:16:08;5.40;99.90
59307;DHT22;47983;53.016;-2.260;2024-01-27T06:18:37;5.40;99.90
59307;DHT22;47983;53.016;-2.260;2024-01-27T06:21:05;5.40;99.90
59307;DHT22;47983;53.016;-2.260;2024-01-27T06:23:33;5.40;99.90
59307;DHT22;47983;53.016;-2.260;2024-01-27T06:26:08;5.40;99.90
59307;DHT22;47983;53.016;-2.260;2024-01-27T06:28:36;5.40;99.90
59307;DHT22;47983;53.016;-2.260;2024-01-27T06:31:04;5.40;99.90
59307;DHT22;47983;53.016;-2.260;2024-01-27T06:33:32;5.40;99.90
59307;DHT22;47983;53.016;-2.260;2024-01-27T06:36:00;5.40;99.90
59307;DHT22;47983;53.016;-2.260;2024-01-27T06:38:27;5.40;99.90
59307;DHT22;47983;53.016;-2.260;2024-01-27T06:40:55;5.40;99.90
59307;DHT22;47983;53.016;-2.260;2024-01-27T06:43:23;5.40;99.90
59307;DHT22;47983;53.016;-2.260;2024-01-27T06:45:51;5.50;99.90
59307;DHT22;47983;53.016;-2.260;2024-01-27T06:48:19;5.50;99.90
59307;DHT22;47983;53.016;-2.260;2024-01-27T06:50:47;5.50;99.90
59307;DHT22;47983;53.016;-2.260;2024-01-27T06:53:14;5.50;99.90
59307;DHT22;47983;53.016;-2.260;2024-01-27T06:55:42;5.50;99.90
59307;DHT22;47983;53.016;-2.260;2024-01-27T06:58:10;5.50;99.90
59307;DHT22;47983;53.016;-2.260;2024-01-27T07:00:38;5.50;99.90
59307;DHT22;47983;53.016;-2.260;2024-01-27T07:03:06;5.50;99.90
59307;DHT22;47983;53.016;-2.260;2024-01-27T07:05:36;5.50;99.90
59307;DHT22;47983;53.016;-2.260;2024-01-27T07:08:08;5.50;99.90
59307;DHT22;47983;53.016;-2.260;2024-01-27T07:10:36;5.50;99.90
59307;DHT22;47983;53.016;-2.260;2024-01-27T07:13:05;5.50;99.90
59307;DHT22;47983;53.016;-2.260;2024-01-27T07:15:34;5.50;99.90
59307;DHT22;47983;53.016;-2.260;2024-01-27T07:18:01;5.50;99.90
59307;DHT22;47983;53.016;-2.260;2024-01-27T07:20:30;5.50;99.90
59307;DHT22;47983;53.016;-2.260;2024-01-27T07:22:57;5.60;99.90
59307;DHT22;47983;53.016;-2.260;2024-01-27T07:25:25;5.50;99.90
59307;DHT22;47983;53.016;-2.260;2024-01-27T07:27:55;5.50;99.90
59307;DHT22;47983;53.016;-2.260;2024-01-27T07:30:23;5.60;99.90
59307;DHT22;47983;53.016;-2.260;2024-01-27T07:32:51;5.60;99.90
59307;DHT22;47983;53.016;-2.260;2024-01-27T07:35:19;5.60;99.90
59307;DHT22;47983;53.016;-2.260;2024-01-27T07:37:46;5.50;99.90
59307;DHT22;47983;53.016;-2.260;2024-01-27T07:40:14;5.60;99.90
59307;DHT22;47983;53.016;-2.260;2024-01-27T07:42:42;5.50;99.90
59307;DHT22;47983;53.016;-2.260;2024-01-27T07:45:11;5.50;99.90
59307;DHT22;47983;53.016;-2.260;2024-01-27T07:47:39;5.50;99.90
59307;DHT22;47983;53.016;-2.260;2024-01-27T07:50:07;5.50;99.90
59307;DHT22;47983;53.016;-2.260;2024-01-27T07:52:37;5.50;99.90
59307;DHT22;47983;53.016;-2.260;2024-01-27T07:55:04;5.50;99.90
59307;DHT22;47983;53.016;-2.260;2024-01-27T07:57:32;5.50;99.90
59307;DHT22;47983;53.016;-2.260;2024-01-27T08:00:00;5.50;99.90
59307;DHT22;47983;53.016;-2.260;2024-01-27T08:02:30;5.50;99.90
59307;DHT22;47983;53.016;-2.260;2024-01-27T08:04:58;5.50;99.90
59307;DHT22;47983;53.016;-2.260;2024-01-27T08:07:26;5.50;99.90
59307;DHT22;47983;53.016;-2.260;2024-01-27T08:09:54;5.50;99.90
59307;DHT22;47983;53.016;-2.260;2024-01-27T08:12:21;5.50;99.90
59307;DHT22;47983;53.016;-2.260;2024-01-27T08:14:49;5.50;99.90
59307;DHT22;47983;53.016;-2.260;2024-01-27T08:17:17;5.50;99.90
59307;DHT22;47983;53.016;-2.260;2024-01-27T08:19:44;5.40;99.90
59307;DHT22;47983;53.016;-2.260;2024-01-27T08:22:12;5.50;99.90
59307;DHT22;47983;53.016;-2.260;2024-01-27T08:24:40;5.60;99.90
59307;DHT22;47983;53.016;-2.260;2024-01-27T08:27:08;5.50;99.90
59307;DHT22;47983;53.016;-2.260;2024-01-27T08:29:35;5.50;99.90
59307;DHT22;47983;53.016;-2.260;2024-01-27T08:32:03;5.50;99.90
59307;DHT22;47983;53.016;-2.260;2024-01-27T08:34:31;5.50;99.90
59307;DHT22;47983;53.016;-2.260;2024-01-27T08:37:01;5.50;99.90
59307;DHT22;47983;53.016;-2.260;2024-01-27T08:39:29;5.50;99.90
59307;DHT22;47983;53.016;-2.260;2024-01-27T08:41:57;5.60;99.90
59307;DHT22;47983;53.016;-2.260;2024-01-27T08:44:25;5.50;99.90
59307;DHT22;47983;53.016;-2.260;2024-01-27T08:46:53;5.50;99.90
59307;DHT22;47983;53.016;-2.260;2024-01-27T08:49:22;5.50;99.90
59307;DHT22;47983;53.016;-2.260;2024-01-27T08:51:50;5.50;99.90
59307;DHT22;47983;53.016;-2.260;2024-01-27T08:54:17;5.50;99.90
59307;DHT22;47983;53.016;-2.260;2024-01-27T08:56:45;5.50;99.90
59307;DHT22;47983;53.016;-2.260;2024-01-27T08:59:13;5.50;99.90
59307;DHT22;47983;53.016;-2.260;2024-01-27T09:01:42;5.50;99.90
59307;DHT22;47983;53.016;-2.260;2024-01-27T09:04:09;5.50;99.90
59307;DHT22;47983;53.016;-2.260;2024-01-27T09:06:37;5.50;99.90
59307;DHT22;47983;53.016;-2.260;2024-01-27T09:09:05;5.50;99.90
59307;DHT22;47983;53.016;-2.260;2024-01-27T09:11:32;5.60;99.90
59307;DHT22;47983;53.016;-2.260;2024-01-27T09:14:01;5.60;99.90
59307;DHT22;47983;53.016;-2.260;2024-01-27T09:16:30;5.60;99.90
59307;DHT22;47983;53.016;-2.260;2024-01-27T09:18:59;5.60;99.90
59307;DHT22;47983;53.016;-2.260;2024-01-27T09:21:28;5.60;99.90
59307;DHT22;47983;53.016;-2.260;2024-01-27T09:23:58;5.60;99.90
59307;DHT22;47983;53.016;-2.260;2024-01-27T09:26:26;5.60;99.90
59307;DHT22;47983;53.016;-2.260;2024-01-27T09:28:54;5.60;99.90
59307;DHT22;47983;53.016;-2.260;2024-01-27T09:31:22;5.60;99.90
59307;DHT22;47983;53.016;-2.260;2024-01-27T09:33:53;5.60;99.90
59307;DHT22;47983;53.016;-2.260;2024-01-27T09:36:21;5.60;99.90
59307;DHT22;47983;53.016;-2.260;2024-01-27T09:38:49;5.60;99.90
59307;DHT22;47983;53.016;-2.260;2024-01-27T09:41:17;5.70;99.90
59307;DHT22;47983;53.016;-2.260;2024-01-27T09:43:46;5.70;99.90
59307;DHT22;47983;53.016;-2.260;2024-01-27T09:46:15;5.70;99.90
59307;DHT22;47983;53.016;-2.260;2024-01-27T09:48:43;5.70;99.90
59307;DHT22;47983;53.016;-2.260;2024-01-27T09:51:12;5.70;99.90
59307;DHT22;47983;53.016;-2.260;2024-01-27T09:53:40;5.80;99.90
59307;DHT22;47983;53.016;-2.260;2024-01-27T09:56:09;5.80;99.90
59307;DHT22;47983;53.016;-2.260;2024-01-27T09:58:37;5.80;99.90
59307;DHT22;47983;53.016;-2.260;2024-01-27T10:01:06;5.90;99.90
59307;DHT22;47983;53.016;-2.260;2024-01-27T10:03:36;5.90;99.90
59307;DHT22;47983;53.016;-2.260;2024-01-27T10:06:08;5.90;99.90
59307;DHT22;47983;53.016;-2.260;2024-01-27T10:08:37;6.00;99.90
59307;DHT22;47983;53.016;-2.260;2024-01-27T10:11:07;6.00;99.90
59307;DHT22;47983;53.016;-2.260;2024-01-27T10:13:36;6.00;99.90
59307;DHT22;47983;53.016;-2.260;2024-01-27T10:16:07;6.00;99.90
59307;DHT22;47983;53.016;-2.260;2024-01-27T10:18:39;6.00;99.90
59307;DHT22;47983;53.016;-2.260;2024-01-27T10:21:16;6.10;99.90
59307;DHT22;47983;53.016;-2.260;2024-01-27T10:23:46;6.10;99.90
59307;DHT22;47983;53.016;-2.260;2024-01-27T10:26:14;6.20;99.90
59307;DHT22;47983;53.016;-2.260;2024-01-27T10:28:42;6.20;99.90
59307;DHT22;47983;53.016;-2.260;2024-01-27T10:31:12;6.20;99.90
59307;DHT22;47983;53.016;-2.260;2024-01-27T10:33:51;6.30;99.90
59307;DHT22;47983;53.016;-2.260;2024-01-27T10:36:19;6.30;99.90
59307;DHT22;47983;53.016;-2.260;2024-01-27T10:38:47;6.30;99.90
59307;DHT22;47983;53.016;-2.260;2024-01-27T10:41:24;6.40;99.90
59307;DHT22;47983;53.016;-2.260;2024-01-27T10:43:53;6.40;99.90
59307;DHT22;47983;53.016;-2.260;2024-01-27T10:46:22;6.40;99.90
59307;DHT22;47983;53.016;-2.260;2024-01-27T10:48:51;6.40;99.90
59307;DHT22;47983;53.016;-2.260;2024-01-27T10:51:32;6.50;99.90
59307;DHT22;47983;53.016;-2.260;2024-01-27T10:54:02;6.60;99.90
59307;DHT22;47983;53.016;-2.260;2024-01-27T10:56:31;6.60;99.90
59307;DHT22;47983;53.016;-2.260;2024-01-27T10:59:00;6.60;99.90
59307;DHT22;47983;53.016;-2.260;2024-01-27T11:01:29;6.70;99.90
59307;DHT22;47983;53.016;-2.260;2024-01-27T11:04:00;6.70;99.90
59307;DHT22;47983;53.016;-2.260;2024-01-27T11:06:31;6.80;99.90
59307;DHT22;47983;53.016;-2.260;2024-01-27T11:08:59;6.80;99.90
59307;DHT22;47983;53.016;-2.260;2024-01-27T11:11:31;6.90;99.90
59307;DHT22;47983;53.016;-2.260;2024-01-27T11:13:59;7.00;99.90
59307;DHT22;47983;53.016;-2.260;2024-01-27T11:16:27;7.00;99.90
59307;DHT22;47983;53.016;-2.260;2024-01-27T11:18:56;7.10;99.90
59307;DHT22;47983;53.016;-2.260;2024-01-27T11:21:27;7.20;99.90
59307;DHT22;47983;53.016;-2.260;2024-01-27T11:23:55;7.20;99.90
59307;DHT22;47983;53.016;-2.260;2024-01-27T11:26:23;7.20;99.90
59307;DHT22;47983;53.016;-2.260;2024-01-27T11:28:53;7.30;99.90
59307;DHT22;47983;53.016;-2.260;2024-01-27T11:31:21;7.30;99.90
59307;DHT22;47983;53.016;-2.260;2024-01-27T11:33:50;7.40;99.90
59307;DHT22;47983;53.016;-2.260;2024-01-27T11:36:22;7.40;99.90
59307;DHT22;47983;53.016;-2.260;2024-01-27T11:38:51;7.40;99.90
59307;DHT22;47983;53.016;-2.260;2024-01-27T11:41:26;7.40;99.90
59307;DHT22;47983;53.016;-2.260;2024-01-27T11:43:56;7.40;99.90
59307;DHT22;47983;53.016;-2.260;2024-01-27T11:46:25;7.40;99.90
59307;DHT22;47983;53.016;-2.260;2024-01-27T11:48:53;7.50;99.90
59307;DHT22;47983;53.016;-2.260;2024-01-27T11:51:21;7.50;99.90
59307;DHT22;47983;53.016;-2.260;2024-01-27T11:53:51;7.50;99.90
59307;DHT22;47983;53.016;-2.260;2024-01-27T11:56:18;7.50;99.90
59307;DHT22;47983;53.016;-2.260;2024-01-27T11:58:47;7.50;99.90
59307;DHT22;47983;53.016;-2.260;2024-01-27T12:01:16;7.40;99.90
59307;DHT22;47983;53.016;-2.260;2024-01-27T12:03:46;7.30;99.90
59307;DHT22;47983;53.016;-2.260;2024-01-27T12:06:14;7.30;99.90
59307;DHT22;47983;53.016;-2.260;2024-01-27T12:08:42;7.30;99.90
59307;DHT22;47983;53.016;-2.260;2024-01-27T12:11:19;7.30;99.90
59307;DHT22;47983;53.016;-2.260;2024-01-27T12:13:53;7.30;99.90
59307;DHT22;47983;53.016;-2.260;2024-01-27T12:16:22;7.30;99.90
59307;DHT22;47983;53.016;-2.260;2024-01-27T12:18:53;7.30;99.90
59307;DHT22;47983;53.016;-2.260;2024-01-27T12:21:24;7.40;99.90
59307;DHT22;47983;53.016;-2.260;2024-01-27T12:23:56;7.40;99.90
59307;DHT22;47983;53.016;-2.260;2024-01-27T12:26:29;7.50;99.90
59307;DHT22;47983;53.016;-2.260;2024-01-27T12:28:57;7.40;99.90
59307;DHT22;47983;53.016;-2.260;2024-01-27T12:31:25;7.50;99.90
59307;DHT22;47983;53.016;-2.260;2024-01-27T12:33:55;7.50;99.90
59307;DHT22;47983;53.016;-2.260;2024-01-27T12:36:24;7.50;99.90
59307;DHT22;47983;53.016;-2.260;2024-01-27T12:39:01;7.60;99.90
59307;DHT22;47983;53.016;-2.260;2024-01-27T12:41:31;7.60;99.90
59307;DHT22;47983;53.016;-2.260;2024-01-27T12:44:02;7.60;99.90
59307;DHT22;47983;53.016;-2.260;2024-01-27T12:46:30;7.60;99.90
59307;DHT22;47983;53.016;-2.260;2024-01-27T12:48:58;7.70;99.90
59307;DHT22;47983;53.016;-2.260;2024-01-27T12:51:26;7.80;99.90
59307;DHT22;47983;53.016;-2.260;2024-01-27T12:53:54;7.80;99.90
59307;DHT22;47983;53.016;-2.260;2024-01-27T12:56:22;7.90;99.90
59307;DHT22;47983;53.016;-2.260;2024-01-27T12:58:49;8.00;99.90
59307;DHT22;47983;53.016;-2.260;2024-01-27T13:01:17;8.10;99.90
59307;DHT22;47983;53.016;-2.260;2024-01-27T13:03:45;8.10;99.90
59307;DHT22;47983;53.016;-2.260;2024-01-27T13:06:13;8.20;99.90
59307;DHT22;47983;53.016;-2.260;2024-01-27T13:08:41;8.30;99.90
59307;DHT22;47983;53.016;-2.260;2024-01-27T13:11:10;8.50;99.90
59307;DHT22;47983;53.016;-2.260;2024-01-27T13:13:37;8.50;99.90
59307;DHT22;47983;53.016;-2.260;2024-01-27T13:16:05;8.60;99.90
59307;DHT22;47983;53.016;-2.260;2024-01-27T13:18:34;8.50;99.90
59307;DHT22;47983;53.016;-2.260;2024-01-27T13:21:02;8.60;99.90
59307;DHT22;47983;53.016;-2.260;2024-01-27T13:23:34;8.60;99.90
59307;DHT22;47983;53.016;-2.260;2024-01-27T13:26:02;8.60;99.90
59307;DHT22;47983;53.016;-2.260;2024-01-27T13:28:33;8.50;99.90
59307;DHT22;47983;53.016;-2.260;2024-01-27T13:31:01;8.50;99.90
59307;DHT22;47983;53.016;-2.260;2024-01-27T13:33:28;8.40;99.90
59307;DHT22;47983;53.016;-2.260;2024-01-27T13:35:56;8.30;99.90
59307;DHT22;47983;53.016;-2.260;2024-01-27T13:38:24;8.20;99.90
59307;DHT22;47983;53.016;-2.260;2024-01-27T13:40:53;8.10;99.90
59307;DHT22;47983;53.016;-2.260;2024-01-27T13:43:21;8.00;99.90
59307;DHT22;47983;53.016;-2.260;2024-01-27T13:45:49;7.90;99.90
59307;DHT22;47983;53.016;-2.260;2024-01-27T13:48:18;7.90;99.90
59307;DHT22;47983;53.016;-2.260;2024-01-27T13:50:46;7.90;99.90
59307;DHT22;47983;53.016;-2.260;2024-01-27T13:53:14;8.00;99.90
59307;DHT22;47983;53.016;-2.260;2024-01-27T13:55:42;8.00;99.90
59307;DHT22;47983;53.016;-2.260;2024-01-27T13:58:11;7.90;99.90
59307;DHT22;47983;53.016;-2.260;2024-01-27T14:00:39;7.90;99.90
59307;DHT22;47983;53.016;-2.260;2024-01-27T14:03:07;7.80;99.90
59307;DHT22;47983;53.016;-2.260;2024-01-27T14:05:34;7.80;99.90
59307;DHT22;47983;53.016;-2.260;2024-01-27T14:08:02;7.80;99.90
59307;DHT22;47983;53.016;-2.260;2024-01-27T14:10:32;7.80;99.90
59307;DHT22;47983;53.016;-2.260;2024-01-27T14:12:59;7.80;99.90
59307;DHT22;47983;53.016;-2.260;2024-01-27T14:15:31;7.70;99.90
59307;DHT22;47983;53.016;-2.260;2024-01-27T14:17:58;7.70;99.90
59307;DHT22;47983;53.016;-2.260;2024-01-27T14:20:26;7.70;99.90
59307;DHT22;47983;53.016;-2.260;2024-01-27T14:22:56;7.70;99.90
59307;DHT22;47983;53.016;-2.260;2024-01-27T14:25:25;7.70;99.90
59307;DHT22;47983;53.016;-2.260;2024-01-27T14:27:53;7.70;99.90
59307;DHT22;47983;53.016;-2.260;2024-01-27T14:30:20;7.70;99.90
59307;DHT22;47983;53.016;-2.260;2024-01-27T14:32:48;7.70;99.90
59307;DHT22;47983;53.016;-2.260;2024-01-27T14:35:16;7.70;99.90
59307;DHT22;47983;53.016;-2.260;2024-01-27T14:37:44;7.70;99.90
59307;DHT22;47983;53.016;-2.260;2024-01-27T14:40:12;7.60;99.90
59307;DHT22;47983;53.016;-2.260;2024-01-27T14:42:40;7.60;99.90
59307;DHT22;47983;53.016;-2.260;2024-01-27T14:45:09;7.60;99.90
59307;DHT22;47983;53.016;-2.260;2024-01-27T14:47:37;7.60;99.90
59307;DHT22;47983;53.016;-2.260;2024-01-27T14:50:05;7.50;99.90
59307;DHT22;47983;53.016;-2.260;2024-01-27T14:52:33;7.50;99.90
59307;DHT22;47983;53.016;-2.260;2024-01-27T14:55:01;7.50;99.90
59307;DHT22;47983;53.016;-2.260;2024-01-27T14:57:29;7.50;99.90
59307;DHT22;47983;53.016;-2.260;2024-01-27T14:59:56;7.50;99.90
59307;DHT22;47983;53.016;-2.260;2024-01-27T15:02:24;7.50;99.90
59307;DHT22;47983;53.016;-2.260;2024-01-27T15:04:54;7.50;99.90
59307;DHT22;47983;53.016;-2.260;2024-01-27T15:07:22;7.50;99.90
59307;DHT22;47983;53.016;-2.260;2024-01-27T15:09:55;7.60;99.90
59307;DHT22;47983;53.016;-2.260;2024-01-27T15:12:23;7.50;99.90
59307;DHT22;47983;53.016;-2.260;2024-01-27T15:14:53;7.50;99.90
59307;DHT22;47983;53.016;-2.260;2024-01-27T15:17:21;7.50;99.90
59307;DHT22;47983;53.016;-2.260;2024-01-27T15:19:52;7.50;99.90
59307;DHT22;47983;53.016;-2.260;2024-01-27T15:22:20;7.50;99.90
59307;DHT22;47983;53.016;-2.260;2024-01-27T15:24:48;7.50;99.90
59307;DHT22;47983;53.016;-2.260;2024-01-27T15:27:17;7.60;99.90
59307;DHT22;47983;53.016;-2.260;2024-01-27T15:29:45;7.50;99.90
59307;DHT22;47983;53.016;-2.260;2024-01-27T15:32:13;7.50;99.90
59307;DHT22;47983;53.016;-2.260;2024-01-27T15:34:44;7.50;99.90
59307;DHT22;47983;53.016;-2.260;2024-01-27T15:37:12;7.50;99.90